Strona główna
METAR-TAF:

METAR-TAF

Lotnisko :

Port lotniczy Tires

Cascais, Portugalia

Szerokość geograficzna: 38-43-32N, Długość geograficzna: 009-21-19W, wysokość: 99 m

Aktualna obserwacja pogody

Raport powstał 33 minut temu, godzina 18:30 UTC
Wiatr 9 kt od północny zachód, zmienny między zachód i północno-północny zachód
Temperatura 19°C
Wilgotność 64%
Ciśnienie 1011 hPa
Widzialność 10 km lub więcej
Mało chmury na wysokości 2300 ft

METAR: LPCS 251830Z 31009KT 270V330 9999 FEW023 19/12 Q1011

czas: 20:03 (19:03 UTC)

Prognoza

Raport powstał 5 godziny i 3 minut temu, godzina 14:00 UTC
Prognoza ważna od 25 godzina 15 UTC do 25 godzina 24 UTC
Wiatr 15 kt od północ
Widzialność 10 km lub więcej
Rozproszone chmury na wysokości 2000 ft
Stopniowe zmiany
od 25 godzina 20 UTC do 25 godzina 22 UTC
Wiatr 10 kt od północny zachód
Przerywane chmury na wysokości 800 ft

TAF: LPCS 251400Z 2515/2524 35015KT 9999 SCT020 BECMG 2520/2522 32010KT BKN008

Obserwacja i prognoza pogody dla ponad 4000 lotnisk (raport METAR i TAF).

Dostępne stacje oznaczono żółtymi i czerwonymi punktami na mapie.

Najedź kursorem aby zobaczyć nazwę stacji.

Kliknij aby zobaczyć obserwacje i prognozy pogody.

Aby zmienić mapę: kliknij na zielony przycisk z czarnym krzyżykiem, aby powiększyć; na zielony przycisk z myślnikiem, aby pomniejszyć; na zielone strzałki, aby przejść do map sąsiednich.


METAR-TAF: